Dades de l'estació automàtica Falset
Resum diari
21:30 TU| Temperatura mitjana | 15.4 °C | |
|---|---|---|
| Temperatura màxima | 21.2 °C | 9:59 TU |
| Temperatura mínima | 9.7 °C | 21:43 TU |
| Humitat relativa mitjana | 82% | |
| Precipitació acumulada | 3.1 mm | |
| Ratxa màxima del vent (10 m) | 26.6 km/h - 289º | 17:15 TU |
| Pressió atmosfèrica mitjana | 1012.5 hPa | |
| Irradiació solar global | 12.5 MJ/m2 | |
El tram horari està expressat en Temps Universal (TU). Cal sumar una hora en horari d'hivern i dues en horari d'estiu per passar a l'hora oficial.
Falset
| Municipi | Falset |
|---|---|
| Comarca | Priorat |
| Altitud | 358 m |
| Data alta | 20.12.2006 |
| Estat actual | Operativa |
| Període TU |
TM °C |
TX °C |
TN °C |
HRM % |
PPT mm |
VVM (10 m) km/h |
DVM (10 m) graus |
VVX (10 m) km/h |
PM hPa |
RS W/m2 |
|---|---|---|---|---|---|---|---|---|---|---|
| 00:00 - 00:30 | 13.0 | 13.5 | 12.5 | 85 | 0.0 | 3.2 | 61 | 9.7 | 1014.5 | 0 |
| 00:30 - 01:00 | 12.2 | 12.6 | 11.9 | 90 | 0.0 | 2.2 | 2 | 7.2 | 1014.5 | 0 |
| 01:00 - 01:30 | 13.0 | 13.4 | 12.5 | 88 | 0.0 | 9.4 | 96 | 20.2 | 1013.8 | 0 |
| 01:30 - 02:00 | 13.3 | 13.4 | 13.1 | 87 | 0.0 | 4.7 | 91 | 14.0 | 1013.8 | 0 |
| 02:00 - 02:30 | 13.3 | 13.7 | 13.0 | 87 | 0.0 | 4.3 | 63 | 10.4 | 1013.8 | 0 |
| 02:30 - 03:00 | 13.8 | 13.8 | 13.7 | 85 | 0.0 | 4.7 | 66 | 10.4 | 1013.6 | 0 |
| 03:00 - 03:30 | 13.6 | 13.7 | 13.5 | 84 | 0.0 | 5.0 | 64 | 11.2 | 1013.4 | 0 |
| 03:30 - 04:00 | 13.7 | 13.9 | 13.6 | 81 | 0.0 | 5.0 | 114 | 14.8 | 1013.4 | 0 |
| 04:00 - 04:30 | 13.8 | 14.0 | 13.5 | 83 | 0.0 | 7.9 | 103 | 14.4 | 1013.2 | 0 |
| 04:30 - 05:00 | 13.2 | 13.5 | 13.0 | 87 | 0.0 | 7.2 | 103 | 13.7 | 1013.1 | 1 |
| 05:00 - 05:30 | 13.3 | 13.4 | 13.2 | 87 | 0.0 | 9.7 | 100 | 15.8 | 1013.1 | 23 |
| 05:30 - 06:00 | 14.1 | 14.6 | 13.5 | 83 | 0.0 | 6.5 | 109 | 13.3 | 1013.0 | 89 |
| 06:00 - 06:30 | 15.2 | 15.8 | 14.5 | 77 | 0.0 | 6.5 | 97 | 12.2 | 1013.0 | 170 |
| 06:30 - 07:00 | 15.9 | 16.3 | 15.6 | 73 | 0.0 | 4.3 | 120 | 10.8 | 1012.9 | 209 |
| 07:00 - 07:30 | 16.5 | 16.9 | 16.1 | 71 | 0.0 | 4.3 | 235 | 11.2 | 1013.0 | 212 |
| 07:30 - 08:00 | 17.3 | 18.0 | 16.7 | 68 | 0.0 | 1.8 | 233 | 6.5 | 1012.8 | 349 |
| 08:00 - 08:30 | 18.0 | 18.6 | 17.3 | 66 | 0.0 | 3.2 | 237 | 7.2 | 1012.6 | 498 |
| 08:30 - 09:00 | 18.3 | 19.4 | 17.4 | 65 | 0.0 | 3.6 | 221 | 10.8 | 1012.3 | 431 |
| 09:00 - 09:30 | 19.0 | 20.0 | 18.2 | 62 | 0.0 | 4.3 | 234 | 11.2 | 1012.2 | 610 |
| 09:30 - 10:00 | 20.1 | 21.2 | 19.2 | 60 | 0.0 | 5.8 | 264 | 14.4 | 1012.1 | 674 |
| 10:00 - 10:30 | 20.6 | 21.2 | 19.3 | 59 | 0.0 | 6.5 | 260 | 14.8 | 1011.9 | 438 |
| 10:30 - 11:00 | 19.4 | 20.1 | 19.0 | 63 | 0.0 | 5.4 | 224 | 13.0 | 1011.8 | 336 |
| 11:00 - 11:30 | 19.6 | 20.0 | 19.2 | 63 | 0.0 | 6.8 | 260 | 12.6 | 1011.6 | 222 |
| 11:30 - 12:00 | 18.4 | 19.1 | 17.3 | 69 | 0.1 | 9.0 | 256 | 16.2 | 1011.9 | 129 |
| 12:00 - 12:30 | 16.7 | 17.2 | 16.3 | 88 | 0.7 | 9.0 | 250 | 14.8 | 1012.1 | 125 |
| 12:30 - 13:00 | 16.5 | 16.8 | 16.2 | 94 | 0.2 | 2.9 | 225 | 11.5 | 1011.6 | 259 |
| 13:00 - 13:30 | 17.9 | 18.9 | 16.8 | 82 | 0.1 | 4.3 | 208 | 10.8 | 1011.0 | 520 |
| 13:30 - 14:00 | 18.5 | 19.6 | 17.5 | 80 | 0.0 | 7.6 | 231 | 16.2 | 1010.9 | 415 |
| 14:00 - 14:30 | 17.2 | 17.6 | 17.0 | 81 | 0.0 | 5.4 | 180 | 12.2 | 1010.8 | 144 |
| 14:30 - 15:00 | 17.1 | 17.4 | 16.9 | 84 | 0.1 | 3.2 | 243 | 7.9 | 1010.8 | 122 |
| 15:00 - 15:30 | 17.2 | 17.4 | 17.0 | 83 | 0.0 | 8.6 | 101 | 18.7 | 1010.6 | 211 |
| 15:30 - 16:00 | 17.7 | 18.1 | 17.2 | 81 | 0.0 | 9.4 | 116 | 18.4 | 1010.5 | 366 |
| 16:00 - 16:30 | 17.8 | 18.1 | 17.5 | 78 | 0.0 | 4.7 | 149 | 14.4 | 1010.6 | 250 |
| 16:30 - 17:00 | 17.2 | 17.7 | 16.1 | 79 | 0.0 | 8.6 | 255 | 20.2 | 1011.0 | 32 |
| 17:00 - 17:30 | 15.5 | 16.0 | 14.2 | 96 | 1.6 | 14.8 | 270 | 26.6 | 1011.2 | 26 |
| 17:30 - 18:00 | 14.3 | 14.6 | 14.1 | 100 | 0.2 | 8.3 | 178 | 16.9 | 1011.7 | 28 |
| 18:00 - 18:30 | 14.3 | 14.5 | 14.1 | 100 | 0.1 | 4.7 | 34 | 13.7 | 1011.9 | 37 |
| 18:30 - 19:00 | 14.0 | 14.4 | 13.3 | 96 | 0.0 | 11.2 | 331 | 20.9 | 1012.4 | 32 |
| 19:00 - 19:30 | 12.8 | 13.2 | 12.4 | 89 | 0.0 | 3.6 | 5 | 10.8 | 1012.8 | 0 |
| 19:30 - 20:00 | 12.0 | 12.5 | 11.6 | 93 | 0.0 | 7.6 | 102 | 11.9 | 1012.8 | 0 |
| 20:00 - 20:30 | 11.0 | 11.6 | 10.7 | 97 | 0.0 | 3.6 | 337 | 7.6 | 1013.3 | 0 |
| 20:30 - 21:00 | 10.3 | 10.7 | 10.2 | 100 | 0.0 | 5.4 | 94 | 8.3 | 1013.8 | 0 |
| 21:00 - 21:30 | 10.2 | 10.3 | 10.0 | 100 | 0.0 | 6.5 | 88 | 9.0 | 1014.0 | 0 |
| 21:30 - 22:00 | 10.0 | 10.3 | 9.7 | 99 | 0.0 | 2.9 | 75 | 6.5 | 1014.2 | 0 |
| 22:00 - 22:30 | (s/d) | (s/d) | (s/d) | (s/d) | (s/d) | (s/d) | (s/d) | (s/d) | (s/d) | (s/d) |
Les dades en taronja només han passat un control de qualitat automàtic. Resta pendent la seva validació definitiva.